Darvel, United Kingdom
Current Conditions -  °F | °C
As of 1:50 AM on Friday 21 Nov 2014 (Local Time) from EGPK Reporting Station
Few Clouds Few Clouds  
Wind Chill: 39°   Ceiling: Unl
Heat Index: 39°   Visibility: 6mi
Dew Point: 37°   Wind: 2mph
Humidity: 93%   Direction: 60°ENE
Pressure: 30.21"   Gusts: NA
Location:  55.61°N, 4.28°W
Report Text: EGPK 210150Z 06002KT 9999 FEW032 04/03 Q1023
Loading
Personal Weather Stations






























Interactive Weather Map New forecast layout! Learn more

10-Day Weather Forecast

Advertisements
Track Severe Weather on mobile